Time;durP1;ratioP1;P1;durP2;ratioP2;P2;SDS_P1;SDS_P2;PMS_P1;PMS_P2;Temp;Humidity;BMP_temperature;BMP_pressure;BME280_temperature;BME280_humidity;BME280_pressure;Samples;Min_cycle;Max_cycle;Signal;HPM_P1;HPM_P2
2023/02/28 00:00:13;;;;;;;;;;;;;;;20.90;38.71;101901.70;106264;1283;62155;-81
2023/02/28 00:02:39;;;;;;;;;;;;;;;20.89;38.62;101896.40;106003;1288;73806;-81
2023/02/28 00:05:05;;;;;;;;;;;;;;;20.89;38.73;101888.35;106129;1283;61926;-80
2023/02/28 00:07:31;;;;;;;;;;;;;;;20.89;38.75;101880.74;106272;1283;62088;-80
2023/02/28 00:09:56;;;;;;;;;;;;;;;20.89;38.69;101885.20;106160;1286;62075;-81
2023/02/28 00:12:22;;;;;;;;;;;;;;;20.90;38.61;101897.72;106124;1287;62078;-81
2023/02/28 00:14:48;;;;;;;;;;;;;;;20.89;38.53;101903.73;106268;1283;62180;-80
2023/02/28 00:17:14;;;;;;;;;;;;;;;20.88;38.49;101904.03;106151;1283;62062;-80
2023/02/28 00:19:39;;;;;;;;;;;;;;;20.89;38.40;101903.56;106150;1283;62181;-80
2023/02/28 00:22:05;;;;;;;;;;;;;;;20.89;38.66;101908.62;106261;1282;62084;-80
2023/02/28 00:24:30;;;;;;;;;;;;;;;20.89;38.58;101918.77;106160;1283;62162;-80
2023/02/28 00:26:56;;;;;;;;;;;;;;;20.88;38.45;101925.77;106133;1282;62248;-80
2023/02/28 00:29:21;;;;;;;;;;;;;;;20.89;38.46;101931.48;106281;1283;60040;-80
2023/02/28 00:31:48;;;;;;;;;;;;;;;20.87;38.59;101934.41;106151;1283;62075;-80
2023/02/28 00:34:13;;;;;;;;;;;;;;;20.88;38.65;101930.44;106153;1281;61977;-80
2023/02/28 00:36:40;;;;;;;;;;;;;;;20.88;38.62;101930.45;106127;1283;62077;-80
2023/02/28 00:39:06;;;;;;;;;;;;;;;20.88;38.43;101940.67;106150;1286;76804;-80
2023/02/28 00:41:32;;;;;;;;;;;;;;;20.88;38.65;101946.00;106272;1283;62079;-80
2023/02/28 00:43:58;;;;;;;;;;;;;;;20.88;38.49;101945.66;106279;1283;62130;-80
2023/02/28 00:46:24;;;;;;;;;;;;;;;20.88;38.46;101944.60;106161;1286;62111;-80
2023/02/28 00:48:50;;;;;;;;;;;;;;;20.88;38.56;101942.81;106067;1282;61969;-80
2023/02/28 00:51:15;;;;;;;;;;;;;;;20.88;38.52;101942.98;105947;1286;62157;-80
2023/02/28 00:53:40;;;;;;;;;;;;;;;20.87;38.45;101931.55;105916;1285;62086;-80
2023/02/28 00:56:06;;;;;;;;;;;;;;;20.87;38.59;101927.26;105916;1285;62156;-81
2023/02/28 00:58:31;;;;;;;;;;;;;;;20.87;38.62;101923.85;105759;1285;62117;-80
2023/02/28 01:00:57;;;;;;;;;;;;;;;20.87;38.56;101917.95;105884;1286;62231;-80
2023/02/28 01:03:22;;;;;;;;;;;;;;;20.87;38.51;101916.16;105816;1285;62168;-80
2023/02/28 01:05:48;;;;;;;;;;;;;;;20.87;38.53;101919.58;105774;1286;61178;-80
2023/02/28 01:08:14;;;;;;;;;;;;;;;20.88;38.50;101927.59;105956;1285;62076;-80
2023/02/28 01:10:39;;;;;;;;;;;;;;;20.87;38.44;101926.02;105915;1289;62484;-81
2023/02/28 01:13:05;;;;;;;;;;;;;;;20.87;38.70;101930.66;105919;1285;62098;-81
2023/02/28 01:15:31;;;;;;;;;;;;;;;20.87;38.52;101945.16;105794;1286;62182;-81
2023/02/28 01:17:57;;;;;;;;;;;;;;;20.87;38.56;101945.34;105797;1286;62136;-80
2023/02/28 01:20:23;;;;;;;;;;;;;;;20.87;38.57;101945.53;105856;1286;62207;-81
2023/02/28 01:22:48;;;;;;;;;;;;;;;20.87;38.41;101940.00;105988;1282;62271;-81
2023/02/28 01:25:13;;;;;;;;;;;;;;;20.87;38.58;101944.64;106141;1287;60383;-81
2023/02/28 01:27:39;;;;;;;;;;;;;;;20.87;38.46;101946.61;106161;1282;62842;-81
2023/02/28 01:30:05;;;;;;;;;;;;;;;20.87;38.40;101951.25;106164;1283;62127;-81
2023/02/28 01:32:31;;;;;;;;;;;;;;;20.87;38.33;101953.95;106157;1283;62142;-81
2023/02/28 01:34:56;;;;;;;;;;;;;;;20.86;38.38;101960.76;106147;1283;72340;-80
2023/02/28 01:37:22;;;;;;;;;;;;;;;20.86;38.49;101966.13;106003;1282;62232;-80
2023/02/28 01:39:47;;;;;;;;;;;;;;;20.86;38.49;101971.48;106174;1287;62146;-80
2023/02/28 01:42:13;;;;;;;;;;;;;;;20.86;38.44;101979.02;106260;1282;62057;-80
2023/02/28 01:44:57;;;;;;;;;;;;;;;20.86;38.54;101982.78;106252;1282;61348;-80
2023/02/28 01:47:23;;;;;;;;;;;;;;;20.86;38.42;101992.62;106134;1287;73516;-80
2023/02/28 01:49:51;;;;;;;;;;;;;;;20.87;38.38;102001.36;106139;1282;62274;-80
2023/02/28 01:52:17;;;;;;;;;;;;;;;20.87;38.30;102001.17;106162;1282;62052;-80
2023/02/28 01:54:45;;;;;;;;;;;;;;;20.87;38.34;101996.00;106252;1283;62142;-80
2023/02/28 01:57:11;;;;;;;;;;;;;;;20.87;38.48;102007.63;106246;1284;73510;-80
2023/02/28 01:59:45;;;;;;;;;;;;;;;20.87;38.37;102014.05;106141;1288;61996;-80
2023/02/28 02:02:11;;;;;;;;;;;;;;;20.87;38.51;102010.66;106280;1282;62123;-80
2023/02/28 02:04:38;;;;;;;;;;;;;;;20.87;38.44;102007.46;106017;1283;62079;-80
2023/02/28 02:07:04;;;;;;;;;;;;;;;20.87;38.30;102004.77;106152;1283;73363;-80
2023/02/28 02:09:30;;;;;;;;;;;;;;;20.87;38.39;102004.94;106139;1282;62076;-80
2023/02/28 02:11:56;;;;;;;;;;;;;;;20.87;38.40;101999.58;106155;1282;62162;-80
2023/02/28 02:14:43;;;;;;;;;;;;;;;20.87;38.36;101999.20;106153;1282;62166;-80
2023/02/28 02:17:28;;;;;;;;;;;;;;;20.87;38.44;102002.25;106168;1282;72525;-80
2023/02/28 02:20:03;;;;;;;;;;;;;;;20.86;38.40;102008.55;106138;1282;75303;-80
2023/02/28 02:22:35;;;;;;;;;;;;;;;20.86;38.18;102009.61;106276;1281;61950;-80
2023/02/28 02:25:03;;;;;;;;;;;;;;;20.87;38.37;102014.42;106126;1283;61939;-80
2023/02/28 02:27:32;;;;;;;;;;;;;;;20.86;38.30;102006.39;106236;1283;73804;-80
2023/02/28 02:30:07;;;;;;;;;;;;;;;20.86;38.27;102004.96;106218;1283;76111;-80
2023/02/28 02:32:40;;;;;;;;;;;;;;;20.86;38.43;102004.79;106267;1285;62171;-81
2023/02/28 02:35:09;;;;;;;;;;;;;;;20.86;38.27;102004.63;106162;1283;62082;-81
2023/02/28 02:37:44;;;;;;;;;;;;;;;20.86;38.32;102006.61;105980;1283;73557;-81
2023/02/28 02:40:11;;;;;;;;;;;;;;;20.86;38.36;102012.48;106255;1282;76272;-81
2023/02/28 02:42:45;;;;;;;;;;;;;;;20.86;38.34;102013.04;105714;1282;61932;-80
2023/02/28 02:45:24;;;;;;;;;;;;;;;20.86;38.32;102012.14;106240;1283;61937;-80
2023/02/28 02:47:50;;;;;;;;;;;;;;;20.86;38.35;102006.23;106236;1282;72750;-80
2023/02/28 02:50:28;;;;;;;;;;;;;;;20.86;38.34;102008.40;106153;1283;62716;-80
2023/02/28 02:52:55;;;;;;;;;;;;;;;20.86;38.38;102007.66;106251;1283;60719;-81
2023/02/28 02:55:21;;;;;;;;;;;;;;;20.86;38.34;102008.57;106269;1283;61963;-81
2023/02/28 02:57:51;;;;;;;;;;;;;;;20.86;38.17;102003.55;106147;1283;62105;-81
2023/02/28 03:00:18;;;;;;;;;;;;;;;20.86;38.22;101993.36;106147;1282;77112;-80
2023/02/28 03:02:44;;;;;;;;;;;;;;;20.86;38.29;101984.60;106176;1283;62167;-80
2023/02/28 03:05:18;;;;;;;;;;;;;;;20.87;38.27;101979.89;106141;1282;62242;-80
2023/02/28 03:07:44;;;;;;;;;;;;;;;20.85;38.24;101984.60;106257;1282;74324;-80
2023/02/28 03:10:48;;;;;;;;;;;;;;;20.85;38.31;101987.30;106243;1282;62006;-80
2023/02/28 03:13:32;;;;;;;;;;;;;;;20.85;38.12;101988.23;105568;1288;62206;-81
2023/02/28 03:16:20;;;;;;;;;;;;;;;20.85;38.19;101991.09;105473;1289;62598;-81
2023/02/28 03:19:07;;;;;;;;;;;;;;;20.85;38.11;101992.86;105580;1288;75293;-81
2023/02/28 03:21:50;;;;;;;;;;;;;;;20.85;38.22;101998.60;105353;1288;76198;-81
2023/02/28 03:24:18;;;;;;;;;;;;;;;20.85;38.23;102011.46;105414;1289;62168;-81
2023/02/28 03:26:45;;;;;;;;;;;;;;;20.85;38.25;102010.73;105579;1288;62076;-81
2023/02/28 03:29:12;;;;;;;;;;;;;;;20.85;38.20;102011.46;105415;1288;72613;-81
2023/02/28 03:31:41;;;;;;;;;;;;;;;20.86;38.15;102017.16;105577;1288;75123;-81
2023/02/28 03:34:13;;;;;;;;;;;;;;;20.85;38.24;102013.44;105510;1288;62053;-81
2023/02/28 03:36:43;;;;;;;;;;;;;;;20.85;38.20;102011.31;105452;1289;62117;-81
2023/02/28 03:39:12;;;;;;;;;;;;;;;20.85;38.11;102007.73;105612;1289;73752;-81
2023/02/28 03:41:49;;;;;;;;;;;;;;;20.85;38.27;102003.26;105599;1292;76246;-81
2023/02/28 03:44:20;;;;;;;;;;;;;;;20.85;38.12;102005.96;105789;1281;62088;-81
2023/02/28 03:46:48;;;;;;;;;;;;;;;20.84;38.11;102017.61;106165;1282;62162;-81
2023/02/28 03:49:16;;;;;;;;;;;;;;;20.84;38.11;102035.31;106157;1287;72064;-81
2023/02/28 03:51:41;;;;;;;;;;;;;;;20.84;38.07;102040.52;106157;1282;76581;-81
2023/02/28 03:54:12;;;;;;;;;;;;;;;20.84;38.09;102038.73;106271;1283;62193;-81
2023/02/28 03:56:38;;;;;;;;;;;;;;;20.84;38.26;102042.11;106174;1282;60956;-81
2023/02/28 03:59:08;;;;;;;;;;;;;;;20.84;38.27;102047.48;106170;1282;62041;-81
2023/02/28 04:01:35;;;;;;;;;;;;;;;20.84;38.03;102054.27;106256;1282;75237;-81
2023/02/28 04:04:01;;;;;;;;;;;;;;;20.84;38.01;102055.72;106146;1282;62142;-81
2023/02/28 04:06:27;;;;;;;;;;;;;;;20.84;38.05;102053.38;106138;1282;62094;-81
2023/02/28 04:08:53;;;;;;;;;;;;;;;20.85;38.10;102052.30;106241;1282;61966;-81
2023/02/28 04:11:21;;;;;;;;;;;;;;;20.84;37.96;102053.40;106281;1282;62092;-80
2023/02/28 04:13:46;;;;;;;;;;;;;;;20.83;38.03;102056.30;106268;1281;60760;-80
2023/02/28 04:16:12;;;;;;;;;;;;;;;20.84;38.12;102060.92;106273;1282;62059;-80
2023/02/28 04:18:42;;;;;;;;;;;;;;;20.83;38.11;102070.96;106257;1281;62134;-81
2023/02/28 04:21:09;;;;;;;;;;;;;;;20.83;38.08;102080.46;106224;1282;75100;-81
2023/02/28 04:23:34;;;;;;;;;;;;;;;20.83;38.09;102090.65;106230;1283;62166;-81
2023/02/28 04:26:00;;;;;;;;;;;;;;;20.83;38.07;102091.00;106158;1282;60965;-81
2023/02/28 04:28:25;;;;;;;;;;;;;;;20.83;38.07;102090.84;106172;1283;62039;-80
2023/02/28 04:30:58;;;;;;;;;;;;;;;20.83;38.07;102088.18;106178;1282;62107;-80
2023/02/28 04:33:23;;;;;;;;;;;;;;;20.84;38.04;102089.39;106239;1285;76291;-80
2023/02/28 04:35:57;;;;;;;;;;;;;;;20.84;38.01;102087.77;106194;1281;62210;-80
2023/02/28 04:38:23;;;;;;;;;;;;;;;20.82;37.93;102085.69;105846;1282;62277;-80
2023/02/28 04:40:48;;;;;;;;;;;;;;;20.81;38.00;102089.16;106148;1282;62158;-80
2023/02/28 04:43:13;;;;;;;;;;;;;;;20.81;37.87;102091.48;106244;1282;62187;-80
2023/02/28 04:45:39;;;;;;;;;;;;;;;20.80;37.78;102089.54;106266;1283;62185;-80
2023/02/28 04:48:05;;;;;;;;;;;;;;;20.80;37.70;102093.35;106195;1285;62175;-80
2023/02/28 04:50:54;;;;;;;;;;;;;;;20.79;37.76;102086.23;106177;1282;62156;-80
2023/02/28 04:53:19;;;;;;;;;;;;;;;20.79;37.52;102082.47;105608;1287;73495;-80
2023/02/28 04:55:45;;;;;;;;;;;;;;;20.79;37.68;102082.30;105468;1288;62214;-80
2023/02/28 04:58:11;;;;;;;;;;;;;;;20.78;37.69;102081.96;105495;1289;62133;-80
2023/02/28 05:00:37;;;;;;;;;;;;;;;20.78;37.54;102084.64;105496;1288;62111;-81
2023/02/28 05:03:02;;;;;;;;;;;;;;;20.78;37.61;102084.47;105481;1289;62211;-81
2023/02/28 05:05:28;;;;;;;;;;;;;;;20.78;37.39;102081.27;105500;1288;62096;-80
2023/02/28 05:07:55;;;;;;;;;;;;;;;20.76;37.39;102077.23;105658;1288;62114;-80
2023/02/28 05:10:22;;;;;;;;;;;;;;;20.75;37.44;102084.27;105625;1287;62080;-80
2023/02/28 05:12:48;;;;;;;;;;;;;;;20.74;37.36;102081.09;105445;1288;62191;-80
2023/02/28 05:15:15;;;;;;;;;;;;;;;20.73;37.27;102086.48;105478;1288;62214;-80
2023/02/28 05:17:42;;;;;;;;;;;;;;;20.72;37.37;102092.64;105445;1288;62537;-81
2023/02/28 05:20:13;;;;;;;;;;;;;;;20.70;37.16;102097.57;105480;1288;62056;-81
2023/02/28 05:22:39;;;;;;;;;;;;;;;20.65;37.20;102096.70;105297;1289;61951;-81
2023/02/28 05:25:05;;;;;;;;;;;;;;;20.56;37.05;102100.17;105512;1288;62271;-81
2023/02/28 05:27:31;;;;;;;;;;;;;;;20.44;37.04;102100.92;105522;1288;62062;-81
2023/02/28 05:29:56;;;;;;;;;;;;;;;20.37;36.92;102098.41;105763;1283;61977;-81
2023/02/28 05:32:22;;;;;;;;;;;;;;;20.30;37.07;102101.09;106053;1285;61941;-81
2023/02/28 05:34:48;;;;;;;;;;;;;;;20.25;36.94;102108.63;105883;1289;62329;-82
2023/02/28 05:37:13;;;;;;;;;;;;;;;20.23;37.02;102100.48;106157;1285;62232;-81
2023/02/28 05:39:39;;;;;;;;;;;;;;;20.19;37.06;102094.59;105902;1285;76042;-81
2023/02/28 05:42:06;;;;;;;;;;;;;;;20.17;36.89;102098.80;105887;1283;63221;-80
2023/02/28 05:44:32;;;;;;;;;;;;;;;20.12;36.83;102107.10;106001;1285;60784;-80
2023/02/28 05:46:57;;;;;;;;;;;;;;;20.07;36.80;102112.52;106045;1286;60834;-81
2023/02/28 05:49:23;;;;;;;;;;;;;;;20.04;36.65;102114.27;106139;1287;61074;-81
2023/02/28 05:51:48;;;;;;;;;;;;;;;20.00;36.69;102115.52;106220;1283;62200;-81
2023/02/28 05:54:14;;;;;;;;;;;;;;;19.93;36.79;102119.92;106061;1285;62130;-81
2023/02/28 05:56:40;;;;;;;;;;;;;;;19.86;36.77;102121.48;106186;1283;62014;-80
2023/02/28 05:59:06;;;;;;;;;;;;;;;19.85;36.66;102125.30;106156;1284;61565;-83
2023/02/28 06:01:31;;;;;;;;;;;;;;;19.83;36.42;102124.87;106134;1283;60645;-82
2023/02/28 06:03:58;;;;;;;;;;;;;;;19.67;36.36;102128.37;106229;1282;60956;-81
2023/02/28 06:06:23;;;;;;;;;;;;;;;19.64;36.47;102133.86;106266;1282;62430;-81
2023/02/28 06:08:48;;;;;;;;;;;;;;;19.67;36.42;102139.65;106346;1282;60120;-81
2023/02/28 06:11:14;;;;;;;;;;;;;;;19.70;36.56;102140.92;106368;1282;60444;-82
2023/02/28 06:13:41;;;;;;;;;;;;;;;19.77;36.21;102142.58;106318;1283;74319;-81
2023/02/28 06:16:08;;;;;;;;;;;;;;;19.84;36.20;102144.30;106531;1281;60223;-81
2023/02/28 06:18:33;;;;;;;;;;;;;;;19.91;36.22;102151.28;106544;1282;61782;-81
2023/02/28 06:20:59;;;;;;;;;;;;;;;20.00;36.06;102154.30;106376;1282;60267;-81
2023/02/28 06:23:24;;;;;;;;;;;;;;;20.08;36.07;102155.19;106396;1282;62191;-81
2023/02/28 06:25:50;;;;;;;;;;;;;;;20.14;35.93;102158.64;106451;1281;60184;-81
2023/02/28 06:28:15;;;;;;;;;;;;;;;20.21;35.83;102160.28;106715;1282;60831;-81
2023/02/28 06:30:41;;;;;;;;;;;;;;;20.26;35.78;102166.65;106359;1282;60854;-81
2023/02/28 06:33:06;;;;;;;;;;;;;;;20.29;35.71;102161.54;106360;1282;60432;-81
2023/02/28 06:35:32;;;;;;;;;;;;;;;20.29;35.79;102169.76;106380;1282;60948;-81
2023/02/28 06:37:57;;;;;;;;;;;;;;;20.28;35.55;102169.63;106435;1282;60682;-81
2023/02/28 06:40:23;;;;;;;;;;;;;;;20.27;35.52;102172.34;106472;1282;62194;-81
2023/02/28 06:42:48;;;;;;;;;;;;;;;20.25;35.55;102174.59;106489;1282;62168;-81
2023/02/28 06:45:14;;;;;;;;;;;;;;;20.24;35.42;102176.27;106495;1282;60817;-81
2023/02/28 06:47:40;;;;;;;;;;;;;;;20.21;35.40;102176.02;106184;1282;60978;-81
2023/02/28 06:50:06;;;;;;;;;;;;;;;20.20;35.30;102174.48;106484;1282;59912;-81
2023/02/28 06:52:36;;;;;;;;;;;;;;;20.21;35.19;102171.04;106314;1283;61885;-83
2023/02/28 06:55:02;;;;;;;;;;;;;;;20.24;35.08;102168.71;106314;1282;61332;-81
2023/02/28 06:57:30;;;;;;;;;;;;;;;20.14;34.63;102165.61;106354;1281;60698;-82
2023/02/28 06:59:56;;;;;;;;;;;;;;;20.00;34.91;102168.59;106492;1281;60840;-81
2023/02/28 07:02:21;;;;;;;;;;;;;;;19.98;34.97;102175.09;105473;1282;1137982;-82
2023/02/28 07:04:47;;;;;;;;;;;;;;;19.96;35.06;102184.11;106336;1282;60584;-81
2023/02/28 07:07:13;;;;;;;;;;;;;;;19.97;35.01;102174.45;106397;1286;62065;-82
2023/02/28 07:09:39;;;;;;;;;;;;;;;19.99;34.99;102168.06;106353;1282;62065;-82
2023/02/28 07:12:05;;;;;;;;;;;;;;;20.04;34.96;102165.17;106378;1283;62057;-81
2023/02/28 07:14:30;;;;;;;;;;;;;;;20.10;34.91;102166.17;106426;1282;62120;-81
2023/02/28 07:16:56;;;;;;;;;;;;;;;20.17;35.02;102165.86;106469;1282;62044;-81
2023/02/28 07:19:21;;;;;;;;;;;;;;;20.23;34.81;102166.27;106453;1282;62088;-81
2023/02/28 07:21:47;;;;;;;;;;;;;;;20.30;34.92;102166.52;106457;1282;60762;-82
2023/02/28 07:24:15;;;;;;;;;;;;;;;20.36;34.90;102160.85;106435;1282;62165;-81
2023/02/28 07:26:41;;;;;;;;;;;;;;;20.41;34.98;102150.96;106490;1282;61707;-81
2023/02/28 07:29:06;;;;;;;;;;;;;;;20.47;34.94;102145.88;106225;1285;63005;-81
2023/02/28 07:31:32;;;;;;;;;;;;;;;20.51;34.68;102142.96;106340;1282;60236;-81
2023/02/28 07:33:58;;;;;;;;;;;;;;;20.57;34.79;102143.79;106316;1283;68206;-81
2023/02/28 07:36:23;;;;;;;;;;;;;;;20.61;34.88;102143.40;106362;1282;62059;-81
2023/02/28 07:38:49;;;;;;;;;;;;;;;20.65;35.04;102149.11;106411;1282;60416;-82
2023/02/28 07:41:15;;;;;;;;;;;;;;;20.69;35.12;102148.41;106438;1281;62084;-82
2023/02/28 07:43:42;;;;;;;;;;;;;;;20.73;35.12;102147.34;106287;1282;62794;-81
2023/02/28 07:46:10;;;;;;;;;;;;;;;20.74;35.02;102141.90;106460;1282;62056;-81
2023/02/28 07:48:35;;;;;;;;;;;;;;;20.76;35.16;102144.84;106306;1282;61501;-81
2023/02/28 07:51:01;;;;;;;;;;;;;;;20.75;35.30;102138.84;106448;1282;62085;-82
2023/02/28 07:53:27;;;;;;;;;;;;;;;20.71;35.23;102133.83;106399;1281;60074;-82
2023/02/28 07:55:56;;;;;;;;;;;;;;;20.56;34.93;102128.09;106338;1282;60423;-82
2023/02/28 07:58:22;;;;;;;;;;;;;;;20.50;35.25;102132.14;106293;1281;72331;-83
2023/02/28 08:00:47;;;;;;;;;;;;;;;20.52;35.49;102132.95;106394;1282;61150;-82
2023/02/28 08:03:12;;;;;;;;;;;;;;;20.55;35.74;102129.21;106340;1282;60713;-82
2023/02/28 08:05:39;;;;;;;;;;;;;;;20.56;35.59;102131.28;106304;1282;60982;-81
2023/02/28 08:08:05;;;;;;;;;;;;;;;20.57;35.79;102133.56;106276;1282;62043;-80
2023/02/28 08:10:31;;;;;;;;;;;;;;;20.60;35.69;102132.55;106244;1282;60781;-81
2023/02/28 08:12:57;;;;;;;;;;;;;;;20.62;35.69;102136.56;106367;1282;61035;-81
2023/02/28 08:15:22;;;;;;;;;;;;;;;20.62;35.76;102144.63;106319;1282;62047;-80
2023/02/28 08:17:48;;;;;;;;;;;;;;;20.61;35.71;102155.02;106373;1282;60727;-80
2023/02/28 08:20:13;;;;;;;;;;;;;;;20.62;35.73;102158.20;106358;1282;60219;-80
2023/02/28 08:22:39;;;;;;;;;;;;;;;20.65;35.77;102162.15;106315;1282;60389;-80
2023/02/28 08:25:06;;;;;;;;;;;;;;;20.69;35.67;102168.08;106384;1282;61038;-80
2023/02/28 08:27:32;;;;;;;;;;;;;;;20.73;35.87;102171.99;106395;1281;61501;-80
2023/02/28 08:29:58;;;;;;;;;;;;;;;20.77;35.86;102174.50;106413;1282;61410;-80
2023/02/28 08:32:23;;;;;;;;;;;;;;;20.83;35.95;102177.46;106409;1282;62436;-80
2023/02/28 08:34:49;;;;;;;;;;;;;;;20.87;35.99;102181.17;106314;1282;60604;-79
2023/02/28 08:37:14;;;;;;;;;;;;;;;20.91;36.07;102180.24;106287;1281;61538;-80
2023/02/28 08:39:40;;;;;;;;;;;;;;;20.94;36.19;102179.92;106474;1281;62175;-80
2023/02/28 08:42:05;;;;;;;;;;;;;;;20.96;36.20;102177.69;106342;1282;60911;-80
2023/02/28 08:44:31;;;;;;;;;;;;;;;20.98;36.23;102185.66;106336;1282;60277;-80
2023/02/28 08:46:57;;;;;;;;;;;;;;;21.01;36.40;102188.05;106323;1282;60874;-80
2023/02/28 08:49:22;;;;;;;;;;;;;;;21.04;36.45;102192.33;106428;1282;62201;-80
2023/02/28 08:51:48;;;;;;;;;;;;;;;21.07;36.72;102190.02;106268;1282;61320;-81
2023/02/28 08:54:15;;;;;;;;;;;;;;;21.09;36.67;102186.54;106299;1281;62024;-81
2023/02/28 08:56:41;;;;;;;;;;;;;;;21.12;36.81;102182.47;106423;1281;72253;-82
2023/02/28 08:59:08;;;;;;;;;;;;;;;21.14;36.83;102178.10;106322;1282;62203;-81
2023/02/28 09:01:33;;;;;;;;;;;;;;;21.16;36.90;102176.02;106267;1282;60348;-84
2023/02/28 09:03:59;;;;;;;;;;;;;;;21.17;36.80;102174.89;106252;1283;62154;-82
2023/02/28 09:06:26;;;;;;;;;;;;;;;21.14;36.81;102174.86;106303;1282;60306;-82
2023/02/28 09:08:58;;;;;;;;;;;;;;;21.08;36.86;102176.39;106368;1281;60656;-82
2023/02/28 09:11:23;;;;;;;;;;;;;;;20.88;36.46;102173.80;106173;1282;62085;-82
2023/02/28 09:13:49;;;;;;;;;;;;;;;20.76;36.57;102173.15;106198;1283;61010;-82
2023/02/28 09:16:15;;;;;;;;;;;;;;;20.65;36.46;102183.83;106194;1281;63001;-82
2023/02/28 09:18:41;;;;;;;;;;;;;;;20.37;36.24;102183.36;106124;1282;60976;-81
2023/02/28 09:21:08;;;;;;;;;;;;;;;20.16;36.32;102175.52;106222;1282;61438;-81
2023/02/28 09:23:34;;;;;;;;;;;;;;;20.08;36.40;102173.94;106159;1283;60100;-80
2023/02/28 09:26:00;;;;;;;;;;;;;;;20.08;36.58;102174.25;106254;1282;61966;-81
2023/02/28 09:28:26;;;;;;;;;;;;;;;20.14;36.42;102171.36;106425;1282;62270;-81
2023/02/28 09:30:53;;;;;;;;;;;;;;;20.20;36.23;102175.19;106368;1282;60866;-81
2023/02/28 09:33:22;;;;;;;;;;;;;;;20.28;36.10;102171.42;106304;1281;60117;-82
2023/02/28 09:35:48;;;;;;;;;;;;;;;20.35;36.15;102168.60;106355;1282;60379;-81
2023/02/28 09:38:14;;;;;;;;;;;;;;;20.42;36.00;102171.48;106364;1282;60845;-80
2023/02/28 09:40:52;;;;;;;;;;;;;;;20.49;35.94;102167.60;106427;1282;60837;-80
2023/02/28 09:43:17;;;;;;;;;;;;;;;20.56;35.90;102165.66;106451;1282;60950;-80
2023/02/28 09:45:46;;;;;;;;;;;;;;;20.60;35.89;102162.59;106377;1282;60065;-81
2023/02/28 09:48:15;;;;;;;;;;;;;;;20.66;35.82;102164.83;106926;1282;75134;-81
2023/02/28 09:50:48;;;;;;;;;;;;;;;20.71;35.87;102158.90;106615;1282;61781;-81
2023/02/28 09:53:16;;;;;;;;;;;;;;;20.75;35.99;102159.38;106368;1282;61967;-80
2023/02/28 09:55:44;;;;;;;;;;;;;;;20.79;36.06;102160.45;106376;1281;73682;-81
2023/02/28 09:58:30;;;;;;;;;;;;;;;20.85;35.83;102159.12;106408;1281;75954;-81
2023/02/28 10:00:58;;;;;;;;;;;;;;;20.87;35.99;102160.95;105853;1282;61190;-81
2023/02/28 10:03:38;;;;;;;;;;;;;;;20.83;35.90;102160.42;106162;1282;61641;-81
2023/02/28 10:06:08;;;;;;;;;;;;;;;20.49;35.59;102155.95;106199;1282;73416;-81
2023/02/28 10:08:36;;;;;;;;;;;;;;;20.31;35.74;102163.41;106428;1282;76311;-81
2023/02/28 10:11:04;;;;;;;;;;;;;;;20.30;35.89;102164.19;106632;1283;63086;-81
2023/02/28 10:13:41;;;;;;;;;;;;;;;20.22;35.88;102164.16;106847;1282;61118;-81
2023/02/28 10:16:14;;;;;;;;;;;;;;;20.16;35.92;102161.95;106929;1282;72379;-82
2023/02/28 10:18:50;;;;;;;;;;;;;;;20.15;35.73;102157.55;106783;1283;76155;-82
2023/02/28 10:21:27;;;;;;;;;;;;;;;20.16;35.71;102157.68;106618;1282;61740;-81
2023/02/28 10:23:53;;;;;;;;;;;;;;;20.20;35.61;102156.77;106585;1282;60683;-82
2023/02/28 10:26:18;;;;;;;;;;;;;;;20.26;35.58;102156.84;106285;1282;60812;-82
2023/02/28 10:28:44;;;;;;;;;;;;;;;20.32;35.56;102156.02;106360;1282;62069;-81
2023/02/28 10:31:16;;;;;;;;;;;;;;;20.39;35.51;102154.45;106543;1282;62033;-81
2023/02/28 10:33:42;;;;;;;;;;;;;;;20.46;35.47;102161.29;106477;1282;61060;-82
2023/02/28 10:36:09;;;;;;;;;;;;;;;20.51;35.53;102158.52;106266;1282;60845;-82
2023/02/28 10:38:36;;;;;;;;;;;;;;;20.56;35.54;102152.77;106369;1283;63234;-82
2023/02/28 10:41:12;;;;;;;;;;;;;;;20.59;35.36;102146.70;106655;1282;62053;-82
2023/02/28 10:43:41;;;;;;;;;;;;;;;20.63;35.47;102139.20;106501;1282;61617;-82
2023/02/28 10:46:10;;;;;;;;;;;;;;;20.67;35.48;102137.92;106234;1285;72494;-81
2023/02/28 10:48:39;;;;;;;;;;;;;;;20.72;35.71;102139.50;106496;1282;76411;-82
2023/02/28 10:51:05;;;;;;;;;;;;;;;20.74;35.63;102129.03;106487;1282;60152;-82
2023/02/28 10:53:32;;;;;;;;;;;;;;;20.75;35.71;102124.88;106366;1282;60969;-81
2023/02/28 10:55:58;;;;;;;;;;;;;;;20.76;35.58;102126.80;106343;1282;71321;-82
2023/02/28 10:58:25;;;;;;;;;;;;;;;20.77;35.54;102117.08;106418;1282;77664;-82
2023/02/28 11:00:51;;;;;;;;;;;;;;;20.78;35.47;102115.61;106330;1282;61860;-81
2023/02/28 11:03:32;;;;;;;;;;;;;;;20.72;35.27;102108.89;106293;1282;60144;-81
2023/02/28 11:05:58;;;;;;;;;;;;;;;20.35;35.03;102104.95;106437;1282;72583;-82
2023/02/28 11:08:24;;;;;;;;;;;;;;;20.13;35.11;102102.93;106365;1282;61504;-83
2023/02/28 11:11:00;;;;;;;;;;;;;;;19.96;35.18;102107.83;106206;1282;60697;-82
2023/02/28 11:13:27;;;;;;;;;;;;;;;19.91;35.44;102110.15;106416;1282;62864;-82
2023/02/28 11:15:57;;;;;;;;;;;;;;;19.90;35.59;102112.90;106290;1281;72574;-81
2023/02/28 11:18:24;;;;;;;;;;;;;;;19.92;35.55;102111.57;106393;1282;75107;-81
2023/02/28 11:20:51;;;;;;;;;;;;;;;19.94;35.43;102104.67;106465;1282;60032;-83
2023/02/28 11:23:18;;;;;;;;;;;;;;;19.97;35.34;102100.60;106428;1282;60984;-82
2023/02/28 11:25:54;;;;;;;;;;;;;;;20.01;35.36;102104.36;106411;1282;73177;-81
2023/02/28 11:28:33;;;;;;;;;;;;;;;20.06;35.32;102105.94;106478;1282;76062;-81
2023/02/28 11:31:00;;;;;;;;;;;;;;;20.09;35.19;102099.19;106434;1282;60310;-81
2023/02/28 11:33:31;;;;;;;;;;;;;;;20.12;35.15;102094.25;106465;1282;60283;-81
2023/02/28 11:35:58;;;;;;;;;;;;;;;20.14;35.32;102095.90;106371;1282;73360;-81
2023/02/28 11:38:24;;;;;;;;;;;;;;;20.18;35.13;102090.73;106356;1282;75281;-81
2023/02/28 11:40:57;;;;;;;;;;;;;;;20.12;34.85;102087.24;106423;1282;60328;-82
2023/02/28 11:43:22;;;;;;;;;;;;;;;19.77;34.70;102087.39;106987;1282;61116;-82
2023/02/28 11:45:57;;;;;;;;;;;;;;;19.66;35.01;102087.90;106916;1281;60949;-82
2023/02/28 11:48:25;;;;;;;;;;;;;;;19.69;34.87;102081.34;106953;1282;75118;-82
2023/02/28 11:50:58;;;;;;;;;;;;;;;19.76;35.04;102088.53;106907;1282;60689;-82
2023/02/28 11:53:42;;;;;;;;;;;;;;;19.81;34.88;102081.16;106949;1282;60038;-82
2023/02/28 11:56:12;;;;;;;;;;;;;;;19.87;35.01;102080.52;106543;1282;74952;-81
2023/02/28 11:58:44;;;;;;;;;;;;;;;19.88;34.74;102085.51;106316;1282;76583;-82
2023/02/28 12:01:28;;;;;;;;;;;;;;;19.85;34.82;102083.13;106193;1282;61894;-82
2023/02/28 12:03:59;;;;;;;;;;;;;;;19.73;34.62;102085.95;106153;1282;61259;-81
2023/02/28 12:06:26;;;;;;;;;;;;;;;19.49;34.67;102080.95;106708;1282;73313;-82
2023/02/28 12:08:55;;;;;;;;;;;;;;;19.35;34.79;102081.22;106591;1282;75412;-82
2023/02/28 12:11:39;;;;;;;;;;;;;;;19.32;34.86;102078.86;106923;1282;59756;-82
2023/02/28 12:14:25;;;;;;;;;;;;;;;19.24;34.78;102080.27;106731;1282;60668;-81
2023/02/28 12:16:51;;;;;;;;;;;;;;;19.04;34.63;102080.58;106411;1282;73546;-82
2023/02/28 12:19:20;;;;;;;;;;;;;;;18.76;34.63;102082.08;106651;1281;60301;-82
2023/02/28 12:22:00;;;;;;;;;;;;;;;18.61;34.91;102078.22;106490;1283;60260;-82
2023/02/28 12:24:35;;;;;;;;;;;;;;;18.71;35.09;102076.94;106803;1282;60335;-81
2023/02/28 12:27:00;;;;;;;;;;;;;;;18.87;35.39;102070.92;106679;1282;73280;-84
2023/02/28 12:29:47;;;;;;;;;;;;;;;19.00;35.23;102070.41;106828;1282;59883;-81